Time;durP1;ratioP1;P1;durP2;ratioP2;P2;SDS_P1;SDS_P2;PMS_P1;PMS_P2;Temp;Humidity;BMP_temperature;BMP_pressure;BME280_temperature;BME280_humidity;BME280_pressure;Samples;Min_cycle;Max_cycle;Signal;HPM_P1;HPM_P2
2022/06/21 00:00:06;;;;;;;;;17.67;14.33;;;;;;;;4883702;29;45349;-69
2022/06/21 00:02:32;;;;;;;;;14.67;14.67;;;;;;;;4885531;29;45243;-69
2022/06/21 00:04:57;;;;;;;;;17.00;16.00;;;;;;;;4879862;29;45689;-69
2022/06/21 00:07:24;;;;;;;;;17.00;15.67;;;;;;;;4887638;29;47140;-69
2022/06/21 00:09:50;;;;;;;;;13.33;12.00;;;;;;;;4878956;29;45207;-69
2022/06/21 00:12:15;;;;;;;;;16.33;14.00;;;;;;;;4885678;29;45284;-69
2022/06/21 00:14:41;;;;;;;;;13.67;13.67;;;;;;;;4879031;29;45485;-70
2022/06/21 00:17:10;;;;;;;;;13.33;13.33;;;;;;;;4885498;29;46405;-69
2022/06/21 00:19:37;;;;;;;;;14.00;12.67;;;;;;;;4879201;29;45449;-69
2022/06/21 00:22:02;;;;;;;;;14.67;13.33;;;;;;;;4885460;29;45300;-69
2022/06/21 00:24:27;;;;;;;;;17.00;14.00;;;;;;;;4878930;29;46245;-69
2022/06/21 00:26:53;;;;;;;;;12.67;12.67;;;;;;;;4885278;29;46684;-69
2022/06/21 00:29:18;;;;;;;;;13.00;11.67;;;;;;;;4879546;29;45336;-70
2022/06/21 00:31:48;;;;;;;;;13.00;11.67;;;;;;;;4885253;29;45603;-69
2022/06/21 00:34:19;;;;;;;;;12.00;12.00;;;;;;;;4882070;29;45423;-69
2022/06/21 00:36:45;;;;;;;;;13.33;11.33;;;;;;;;4884920;29;46739;-69
2022/06/21 00:39:12;;;;;;;;;10.67;10.00;;;;;;;;4882163;29;45532;-69
2022/06/21 00:41:40;;;;;;;;;12.00;12.00;;;;;;;;4885122;29;45581;-69
2022/06/21 00:44:07;;;;;;;;;13.33;13.33;;;;;;;;4883080;29;46037;-69
2022/06/21 00:46:42;;;;;;;;;10.33;10.33;;;;;;;;4884995;29;45395;-69
2022/06/21 00:49:25;;;;;;;;;12.67;11.00;;;;;;;;4881854;29;45249;-70
2022/06/21 00:51:57;;;;;;;;;11.67;10.67;;;;;;;;4880450;29;45272;-69
2022/06/21 00:54:45;;;;;;;;;10.00;10.00;;;;;;;;4877453;29;45863;-69
2022/06/21 00:57:13;;;;;;;;;11.33;11.33;;;;;;;;4883604;29;46301;-69
2022/06/21 00:59:39;;;;;;;;;10.33;10.33;;;;;;;;4886423;29;45277;-69
2022/06/21 01:02:16;;;;;;;;;13.00;10.00;;;;;;;;4876873;29;45296;-69
2022/06/21 01:04:45;;;;;;;;;11.33;10.67;;;;;;;;4886992;29;45405;-69
2022/06/21 01:07:11;;;;;;;;;11.67;11.67;;;;;;;;4880079;29;45342;-69
2022/06/21 01:09:39;;;;;;;;;9.67;8.67;;;;;;;;4883631;29;45432;-69
2022/06/21 01:12:07;;;;;;;;;10.33;10.33;;;;;;;;4883476;29;45211;-69
2022/06/21 01:14:35;;;;;;;;;9.00;9.00;;;;;;;;4894875;29;47264;-69
2022/06/21 01:17:00;;;;;;;;;10.33;10.00;;;;;;;;4877135;29;45443;-69
2022/06/21 01:19:32;;;;;;;;;10.00;10.00;;;;;;;;4884378;29;45249;-69
2022/06/21 01:22:00;;;;;;;;;11.00;10.67;;;;;;;;4878696;29;45451;-69
2022/06/21 01:24:35;;;;;;;;;9.67;9.67;;;;;;;;4884211;29;45720;-69
2022/06/21 01:27:01;;;;;;;;;8.00;8.00;;;;;;;;4879100;29;46743;-70
2022/06/21 01:29:28;;;;;;;;;10.33;8.67;;;;;;;;4883638;29;45467;-69
2022/06/21 01:31:59;;;;;;;;;12.67;10.00;;;;;;;;4881325;29;45459;-69
2022/06/21 01:34:25;;;;;;;;;9.67;9.67;;;;;;;;4884145;29;45285;-69
2022/06/21 01:36:55;;;;;;;;;9.00;9.00;;;;;;;;4878457;29;47475;-70
2022/06/21 01:39:30;;;;;;;;;8.00;8.00;;;;;;;;4883950;29;45235;-69
2022/06/21 01:42:06;;;;;;;;;12.00;11.00;;;;;;;;4886468;29;45498;-69
2022/06/21 01:44:35;;;;;;;;;9.00;9.00;;;;;;;;4889183;29;45669;-69
2022/06/21 01:47:01;;;;;;;;;9.33;9.33;;;;;;;;4875734;29;47009;-69
2022/06/21 01:49:27;;;;;;;;;12.00;9.00;;;;;;;;4886430;29;45206;-69
2022/06/21 01:52:02;;;;;;;;;11.67;8.67;;;;;;;;4887089;29;45386;-69
2022/06/21 01:54:30;;;;;;;;;9.33;9.00;;;;;;;;4880005;29;45479;-70
2022/06/21 01:56:56;;;;;;;;;7.00;7.00;;;;;;;;4880156;29;45662;-69
2022/06/21 01:59:26;;;;;;;;;9.00;9.00;;;;;;;;4887100;29;45371;-69
2022/06/21 02:02:15;;;;;;;;;11.00;10.67;;;;;;;;4876044;29;45241;-69
2022/06/21 02:04:43;;;;;;;;;10.67;9.00;;;;;;;;4879029;29;45424;-70
2022/06/21 02:07:10;;;;;;;;;12.67;11.00;;;;;;;;4877630;29;45287;-69
2022/06/21 02:09:42;;;;;;;;;9.00;9.00;;;;;;;;4883399;29;45253;-69
2022/06/21 02:12:10;;;;;;;;;9.67;9.67;;;;;;;;4876420;29;45356;-69
2022/06/21 02:14:38;;;;;;;;;9.00;9.00;;;;;;;;4896692;28;46280;-69
2022/06/21 02:17:22;;;;;;;;;10.67;9.33;;;;;;;;4876411;29;45398;-69
2022/06/21 02:20:00;;;;;;;;;8.33;8.00;;;;;;;;4894982;28;45285;-69
2022/06/21 02:22:27;;;;;;;;;9.00;8.00;;;;;;;;4891202;28;45397;-69
2022/06/21 02:24:53;;;;;;;;;10.00;9.00;;;;;;;;4881629;29;46407;-69
2022/06/21 02:27:20;;;;;;;;;11.00;9.00;;;;;;;;4879936;29;45351;-69
2022/06/21 02:29:47;;;;;;;;;13.00;10.00;;;;;;;;4883169;29;45447;-69
2022/06/21 02:32:19;;;;;;;;;9.67;8.00;;;;;;;;4880758;29;45253;-69
2022/06/21 02:34:47;;;;;;;;;9.00;9.00;;;;;;;;4883540;29;45347;-70
2022/06/21 02:37:15;;;;;;;;;9.00;9.00;;;;;;;;4881516;29;45595;-69
2022/06/21 02:39:40;;;;;;;;;10.00;10.00;;;;;;;;4883644;29;45363;-69
2022/06/21 02:42:13;;;;;;;;;11.00;8.00;;;;;;;;4873466;29;45614;-69
2022/06/21 02:44:41;;;;;;;;;12.33;9.67;;;;;;;;4883294;29;45503;-69
2022/06/21 02:47:10;;;;;;;;;9.33;9.33;;;;;;;;4881092;29;45281;-69
2022/06/21 02:49:42;;;;;;;;;9.00;9.00;;;;;;;;4888966;29;45424;-69
2022/06/21 02:52:13;;;;;;;;;13.00;10.67;;;;;;;;4880190;28;45337;-69
2022/06/21 02:54:46;;;;;;;;;9.67;7.00;;;;;;;;4883045;29;45257;-69
2022/06/21 02:57:14;;;;;;;;;10.00;10.00;;;;;;;;4879951;29;45392;-69
2022/06/21 02:59:41;;;;;;;;;13.00;11.67;;;;;;;;4881685;29;45883;-69
2022/06/21 03:02:11;;;;;;;;;10.67;10.67;;;;;;;;4876505;29;45410;-69
2022/06/21 03:04:37;;;;;;;;;10.00;7.00;;;;;;;;4894210;29;45466;-69
2022/06/21 03:07:02;;;;;;;;;9.00;9.00;;;;;;;;4876680;29;45481;-69
2022/06/21 03:09:28;;;;;;;;;9.33;9.00;;;;;;;;4882952;29;45223;-69
2022/06/21 03:11:57;;;;;;;;;13.00;11.67;;;;;;;;4877173;29;45221;-69
2022/06/21 03:14:23;;;;;;;;;9.33;8.00;;;;;;;;4877058;29;45385;-70
2022/06/21 03:16:48;;;;;;;;;10.67;10.00;;;;;;;;4873890;29;45476;-69
2022/06/21 03:19:21;;;;;;;;;10.67;10.00;;;;;;;;4885483;29;45405;-69
2022/06/21 03:21:47;;;;;;;;;11.67;10.00;;;;;;;;4879184;29;45576;-69
2022/06/21 03:24:16;;;;;;;;;12.00;10.67;;;;;;;;4886096;29;45527;-69
2022/06/21 03:26:44;;;;;;;;;9.33;8.00;;;;;;;;4881275;29;45306;-69
2022/06/21 03:29:09;;;;;;;;;10.00;8.33;;;;;;;;4884299;29;45451;-69
2022/06/21 03:31:39;;;;;;;;;10.00;7.67;;;;;;;;4882574;29;45234;-69
2022/06/21 03:34:06;;;;;;;;;9.33;8.67;;;;;;;;4886044;29;45483;-69
2022/06/21 03:36:32;;;;;;;;;10.00;10.00;;;;;;;;4879188;29;45527;-69
2022/06/21 03:39:03;;;;;;;;;8.00;8.00;;;;;;;;4885873;29;45327;-69
2022/06/21 03:41:44;;;;;;;;;9.00;9.00;;;;;;;;4879178;29;45352;-69
2022/06/21 03:44:24;;;;;;;;;15.33;12.00;;;;;;;;4884709;29;45384;-69
2022/06/21 03:47:08;;;;;;;;;10.67;10.00;;;;;;;;4878027;29;46836;-69
2022/06/21 03:49:55;;;;;;;;;14.67;10.67;;;;;;;;4882296;29;45400;-69
2022/06/21 03:52:43;;;;;;;;;12.67;10.33;;;;;;;;4883536;29;45360;-70
2022/06/21 03:55:17;;;;;;;;;8.67;8.67;;;;;;;;4882682;29;46107;-70
2022/06/21 03:57:47;;;;;;;;;11.00;11.00;;;;;;;;4882625;29;45254;-70
2022/06/21 04:00:13;;;;;;;;;11.33;10.00;;;;;;;;4883824;29;45335;-70
2022/06/21 04:02:38;;;;;;;;;14.33;11.67;;;;;;;;4881988;29;45268;-69
2022/06/21 04:05:09;;;;;;;;;11.00;8.00;;;;;;;;4882545;29;46425;-70
2022/06/21 04:07:39;;;;;;;;;14.00;11.00;;;;;;;;4883967;29;45407;-70
2022/06/21 04:10:07;;;;;;;;;11.67;10.67;;;;;;;;4882666;29;45295;-70
2022/06/21 04:12:32;;;;;;;;;10.00;10.00;;;;;;;;4881004;29;45231;-70
2022/06/21 04:14:58;;;;;;;;;10.00;10.00;;;;;;;;4884239;29;45269;-70
2022/06/21 04:17:23;;;;;;;;;7.67;7.67;;;;;;;;4880513;29;46490;-69
2022/06/21 04:19:52;;;;;;;;;15.33;12.00;;;;;;;;4884064;29;45242;-69
2022/06/21 04:22:24;;;;;;;;;14.67;12.00;;;;;;;;4894435;29;45369;-70
2022/06/21 04:25:00;;;;;;;;;14.00;12.00;;;;;;;;4881155;29;45237;-69
2022/06/21 04:27:31;;;;;;;;;11.00;8.00;;;;;;;;4882272;29;45614;-69
2022/06/21 04:30:02;;;;;;;;;16.33;13.67;;;;;;;;4883015;29;45318;-69
2022/06/21 04:32:35;;;;;;;;;16.67;13.00;;;;;;;;4883464;29;45443;-69
2022/06/21 04:35:09;;;;;;;;;13.67;13.00;;;;;;;;4883946;29;45266;-69
2022/06/21 04:37:38;;;;;;;;;13.67;12.33;;;;;;;;4883452;29;45744;-69
2022/06/21 04:40:06;;;;;;;;;15.00;13.00;;;;;;;;4884632;29;45470;-69
2022/06/21 04:42:37;;;;;;;;;13.67;11.67;;;;;;;;4876654;29;45438;-69
2022/06/21 04:45:10;;;;;;;;;16.00;12.33;;;;;;;;4883829;29;45368;-70
2022/06/21 04:47:43;;;;;;;;;18.33;15.67;;;;;;;;4878650;29;45341;-70
2022/06/21 04:50:11;;;;;;;;;14.67;13.67;;;;;;;;4890821;29;45253;-70
2022/06/21 04:52:40;;;;;;;;;17.00;14.67;;;;;;;;4883155;29;45427;-70
2022/06/21 04:55:12;;;;;;;;;14.00;14.00;;;;;;;;4884131;29;45553;-70
2022/06/21 04:57:37;;;;;;;;;16.00;13.67;;;;;;;;4881749;29;46319;-70
2022/06/21 05:00:05;;;;;;;;;13.33;12.33;;;;;;;;4883560;29;45356;-70
2022/06/21 05:02:32;;;;;;;;;13.67;13.33;;;;;;;;4882714;29;45436;-70
2022/06/21 05:05:06;;;;;;;;;11.33;9.67;;;;;;;;4883957;29;45346;-70
2022/06/21 05:07:40;;;;;;;;;15.67;15.00;;;;;;;;4876627;29;45602;-70
2022/06/21 05:10:05;;;;;;;;;15.00;14.00;;;;;;;;4879936;29;45547;-70
2022/06/21 05:12:35;;;;;;;;;19.67;14.00;;;;;;;;4880008;29;45370;-70
2022/06/21 05:15:04;;;;;;;;;13.00;12.33;;;;;;;;4883290;29;45542;-68
2022/06/21 05:17:31;;;;;;;;;14.67;14.67;;;;;;;;4879912;29;46510;-69
2022/06/21 05:19:59;;;;;;;;;11.00;11.00;;;;;;;;4883693;29;45484;-70
2022/06/21 05:22:35;;;;;;;;;17.67;14.67;;;;;;;;4877343;29;45322;-69
2022/06/21 05:25:15;;;;;;;;;18.00;16.33;;;;;;;;4883337;29;45439;-69
2022/06/21 05:27:44;;;;;;;;;18.33;15.33;;;;;;;;4882976;29;46244;-69
2022/06/21 05:30:21;;;;;;;;;14.00;13.00;;;;;;;;4882264;29;45467;-69
2022/06/21 05:32:49;;;;;;;;;18.67;14.67;;;;;;;;4882928;29;45493;-70
2022/06/21 05:35:17;;;;;;;;;15.00;14.00;;;;;;;;4880528;29;45566;-69
2022/06/21 05:38:00;;;;;;;;;16.00;15.33;;;;;;;;4883522;29;45334;-69
2022/06/21 05:40:31;;;;;;;;;15.00;15.00;;;;;;;;4880557;29;45615;-69
2022/06/21 05:42:56;;;;;;;;;21.67;15.00;;;;;;;;4882854;29;45507;-69
2022/06/21 05:45:25;;;;;;;;;15.67;15.00;;;;;;;;4882322;29;45273;-70
2022/06/21 05:47:59;;;;;;;;;18.33;14.00;;;;;;;;4882904;28;47134;-69
2022/06/21 05:50:26;;;;;;;;;14.00;13.33;;;;;;;;4888792;29;45298;-69
2022/06/21 05:52:53;;;;;;;;;16.50;16.25;;;;;;;;4882962;29;45269;-69
2022/06/21 05:55:21;;;;;;;;;16.00;14.33;;;;;;;;4880315;29;46533;-69
2022/06/21 05:57:51;;;;;;;;;19.00;17.00;;;;;;;;4894952;28;47014;-70
2022/06/21 06:00:19;;;;;;;;;14.00;14.00;;;;;;;;4878831;29;45682;-69
2022/06/21 06:02:48;;;;;;;;;16.00;16.00;;;;;;;;4880750;29;45474;-69
2022/06/21 06:05:16;;;;;;;;;14.67;13.00;;;;;;;;4882006;29;45354;-69
2022/06/21 06:07:50;;;;;;;;;16.00;12.00;;;;;;;;4879417;29;45721;-69
2022/06/21 06:10:17;;;;;;;;;15.00;14.00;;;;;;;;4883547;29;45245;-69
2022/06/21 06:12:44;;;;;;;;;14.33;13.00;;;;;;;;4897884;29;45244;-69
2022/06/21 06:15:15;;;;;;;;;15.33;15.33;;;;;;;;4896843;29;45427;-69
2022/06/21 06:17:49;;;;;;;;;15.67;12.00;;;;;;;;4879297;29;45480;-69
2022/06/21 06:20:33;;;;;;;;;18.00;17.67;;;;;;;;4881947;29;45363;-69
2022/06/21 06:23:16;;;;;;;;;15.33;14.33;;;;;;;;4892736;29;45379;-69
2022/06/21 06:26:20;;;;;;;;;16.00;15.67;;;;;;;;4879679;29;45574;-69
2022/06/21 06:28:56;;;;;;;;;22.33;18.00;;;;;;;;4883580;29;47356;-69
2022/06/21 06:31:21;;;;;;;;;18.33;14.67;;;;;;;;4891600;29;45625;-69
2022/06/21 06:33:52;;;;;;;;;19.00;17.00;;;;;;;;4883783;29;45291;-69
2022/06/21 06:36:18;;;;;;;;;17.67;16.33;;;;;;;;4874449;29;45316;-70
2022/06/21 06:38:44;;;;;;;;;14.67;14.00;;;;;;;;4883207;29;45478;-69
2022/06/21 06:41:14;;;;;;;;;17.00;17.00;;;;;;;;4879916;29;45432;-69
2022/06/21 06:43:45;;;;;;;;;17.00;15.00;;;;;;;;4878313;29;45304;-69
2022/06/21 06:46:15;;;;;;;;;13.33;12.67;;;;;;;;4869920;29;45457;-70
2022/06/21 06:48:41;;;;;;;;;17.00;14.00;;;;;;;;4879958;29;45518;-70
2022/06/21 06:51:15;;;;;;;;;16.00;16.00;;;;;;;;4892223;29;45509;-69
2022/06/21 06:53:49;;;;;;;;;16.33;15.00;;;;;;;;4890449;28;45514;-69
2022/06/21 06:56:19;;;;;;;;;16.33;14.67;;;;;;;;4876090;29;45596;-69
2022/06/21 06:58:48;;;;;;;;;15.67;14.33;;;;;;;;4886549;29;45308;-69
2022/06/21 07:01:15;;;;;;;;;16.67;16.67;;;;;;;;4880733;29;45476;-69
2022/06/21 07:04:00;;;;;;;;;15.00;14.33;;;;;;;;4886446;29;45454;-69
2022/06/21 07:06:41;;;;;;;;;16.33;15.33;;;;;;;;4877266;29;47325;-69
2022/06/21 07:09:10;;;;;;;;;17.00;14.00;;;;;;;;4884028;29;46142;-69
2022/06/21 07:11:39;;;;;;;;;19.33;17.00;;;;;;;;4880976;29;45462;-70
2022/06/21 07:14:05;;;;;;;;;16.33;15.00;;;;;;;;4886112;29;45292;-71
2022/06/21 07:16:34;;;;;;;;;17.00;17.00;;;;;;;;4883724;29;45415;-70
2022/06/21 07:19:00;;;;;;;;;14.33;13.00;;;;;;;;4884417;29;45454;-70
2022/06/21 07:21:26;;;;;;;;;20.00;18.00;;;;;;;;4884488;29;45491;-70
2022/06/21 07:23:52;;;;;;;;;16.67;16.00;;;;;;;;4886464;29;45368;-70
2022/06/21 07:26:27;;;;;;;;;16.33;16.33;;;;;;;;4886142;28;45464;-70
2022/06/21 07:28:55;;;;;;;;;17.67;16.67;;;;;;;;4896232;28;46748;-70
2022/06/21 07:31:24;;;;;;;;;11.67;11.67;;;;;;;;4876313;29;45419;-70
2022/06/21 07:33:58;;;;;;;;;19.33;19.00;;;;;;;;4884772;29;45531;-70
2022/06/21 07:36:26;;;;;;;;;20.33;16.33;;;;;;;;4877308;29;45461;-70
2022/06/21 07:38:56;;;;;;;;;14.67;14.67;;;;;;;;4885833;29;45429;-70
2022/06/21 07:41:27;;;;;;;;;16.67;15.67;;;;;;;;4884015;29;45309;-70
2022/06/21 07:43:57;;;;;;;;;19.67;18.33;;;;;;;;4885830;29;45312;-70
2022/06/21 07:46:32;;;;;;;;;20.33;18.00;;;;;;;;4880737;29;45455;-70
2022/06/21 07:49:03;;;;;;;;;20.67;17.67;;;;;;;;4885706;29;45449;-70
2022/06/21 07:51:32;;;;;;;;;17.67;14.67;;;;;;;;4880929;29;45320;-70
2022/06/21 07:54:10;;;;;;;;;17.33;15.00;;;;;;;;4886012;29;45496;-70
2022/06/21 07:56:40;;;;;;;;;17.67;16.00;;;;;;;;4882081;29;45328;-71
2022/06/21 07:59:14;;;;;;;;;17.67;16.33;;;;;;;;4887470;29;45309;-71
2022/06/21 08:07:20;;;;;;;;;14.00;14.00;;;;;;;;4880939;29;45499;-72
2022/06/21 08:10:01;;;;;;;;;17.00;15.33;;;;;;;;4885403;29;45284;-71
2022/06/21 08:12:26;;;;;;;;;13.67;13.67;;;;;;;;4880185;29;45400;-71
2022/06/21 08:14:52;;;;;;;;;18.00;16.00;;;;;;;;4885480;29;45341;-71
2022/06/21 08:17:24;;;;;;;;;17.67;16.67;;;;;;;;4879738;29;45434;-71
2022/06/21 08:19:49;;;;;;;;;15.00;15.00;;;;;;;;4885469;29;45401;-71
2022/06/21 08:22:27;;;;;;;;;13.00;12.67;;;;;;;;4884072;29;45799;-71
2022/06/21 08:24:52;;;;;;;;;12.67;12.67;;;;;;;;4878691;29;45161;-71
2022/06/21 08:27:23;;;;;;;;;19.33;18.00;;;;;;;;4882431;29;45612;-71
2022/06/21 08:29:55;;;;;;;;;14.00;14.00;;;;;;;;4885139;29;45491;-71
2022/06/21 08:32:27;;;;;;;;;17.67;17.00;;;;;;;;4896604;28;45253;-71
2022/06/21 08:34:56;;;;;;;;;15.33;13.00;;;;;;;;4884372;29;45309;-71
2022/06/21 08:37:47;;;;;;;;;18.67;17.67;;;;;;;;4883260;29;45302;-72
2022/06/21 08:40:18;;;;;;;;;18.67;16.00;;;;;;;;4882048;29;45904;-72
2022/06/21 08:42:49;;;;;;;;;16.33;15.33;;;;;;;;4876621;29;45260;-71
2022/06/21 08:48:24;;;;;;;;;10.00;10.00;;;;;;;;4864069;29;45372;-71
2022/06/21 08:51:08;;;;;;;;;16.33;16.33;;;;;;;;4878450;29;47626;-71
2022/06/21 08:53:39;;;;;;;;;17.33;17.33;;;;;;;;4881028;29;45415;-71
2022/06/21 08:56:15;;;;;;;;;18.33;15.67;;;;;;;;4881537;29;45357;-72
2022/06/21 08:58:49;;;;;;;;;16.33;15.67;;;;;;;;4886916;29;45331;-72
2022/06/21 09:01:17;;;;;;;;;17.33;16.67;;;;;;;;4878777;29;45415;-72
2022/06/21 09:04:02;;;;;;;;;14.67;13.00;;;;;;;;4884666;29;45271;-71
2022/06/21 09:06:27;;;;;;;;;19.00;16.00;;;;;;;;4878855;29;45342;-71
2022/06/21 09:09:01;;;;;;;;;14.67;13.00;;;;;;;;4884824;29;45601;-71
2022/06/21 09:11:39;;;;;;;;;18.33;15.33;;;;;;;;4878550;29;45426;-72
2022/06/21 09:14:04;;;;;;;;;15.33;14.67;;;;;;;;4884476;29;45324;-71
2022/06/21 09:16:44;;;;;;;;;16.67;15.67;;;;;;;;4878048;29;45317;-72
2022/06/21 09:19:22;;;;;;;;;18.67;14.33;;;;;;;;4882480;29;45584;-71
2022/06/21 09:21:53;;;;;;;;;16.00;14.33;;;;;;;;4879709;29;45503;-71
2022/06/21 09:24:38;;;;;;;;;17.00;15.33;;;;;;;;4884526;29;45217;-71
2022/06/21 09:27:14;;;;;;;;;17.33;17.33;;;;;;;;4881395;29;45236;-71
2022/06/21 09:29:48;;;;;;;;;16.33;15.00;;;;;;;;4884109;29;45241;-71
2022/06/21 09:32:26;;;;;;;;;16.00;15.00;;;;;;;;4881607;29;45595;-72
2022/06/21 09:35:05;;;;;;;;;20.00;15.67;;;;;;;;4884627;29;45189;-71
2022/06/21 09:37:38;;;;;;;;;15.33;15.33;;;;;;;;4876261;29;45332;-72
2022/06/21 09:40:03;;;;;;;;;17.67;16.00;;;;;;;;4883233;29;45300;-72
2022/06/21 09:42:39;;;;;;;;;17.33;16.33;;;;;;;;4876041;29;45297;-72
2022/06/21 09:45:23;;;;;;;;;14.50;14.25;;;;;;;;4881587;29;45557;-70
2022/06/21 09:47:52;;;;;;;;;16.50;16.50;;;;;;;;4895435;29;45386;-70
2022/06/21 09:50:27;;;;;;;;;17.75;17.75;;;;;;;;4878814;29;45725;-72
2022/06/21 09:52:58;;;;;;;;;17.75;15.75;;;;;;;;4883358;29;45748;-70
2022/06/21 09:55:35;;;;;;;;;18.75;17.25;;;;;;;;4879761;29;45453;-71
2022/06/21 09:58:09;;;;;;;;;16.75;16.75;;;;;;;;4884709;29;45371;-71
2022/06/21 10:00:35;;;;;;;;;17.75;16.75;;;;;;;;4878867;29;45638;-71
2022/06/21 10:03:25;;;;;;;;;17.75;15.75;;;;;;;;4880551;29;47994;-71
2022/06/21 10:05:50;;;;;;;;;18.25;15.00;;;;;;;;4879122;29;45427;-71
2022/06/21 10:08:41;;;;;;;;;18.25;18.25;;;;;;;;4882990;29;45384;-71
2022/06/21 10:11:10;;;;;;;;;17.25;17.25;;;;;;;;4879013;29;47215;-71
2022/06/21 10:13:45;;;;;;;;;14.75;14.75;;;;;;;;4883345;29;46179;-71
2022/06/21 10:16:17;;;;;;;;;20.50;17.75;;;;;;;;4877682;29;45469;-72
2022/06/21 10:18:42;;;;;;;;;20.00;16.75;;;;;;;;4883761;29;45333;-69
2022/06/21 10:21:20;;;;;;;;;17.25;17.25;;;;;;;;4880525;29;45504;-69
2022/06/21 10:23:57;;;;;;;;;20.25;19.00;;;;;;;;4882449;29;45339;-69
2022/06/21 10:26:22;;;;;;;;;18.50;18.25;;;;;;;;4880683;29;45321;-68
2022/06/21 10:28:47;;;;;;;;;17.60;16.00;;;;;;;;4882433;29;45359;-69
2022/06/21 10:31:20;;;;;;;;;15.50;15.50;;;;;;;;4893178;29;45296;-68
2022/06/21 10:33:46;;;;;;;;;16.00;14.25;;;;;;;;4899451;28;45397;-69
2022/06/21 10:36:38;;;;;;;;;12.20;12.20;;;;;;;;4892315;29;45427;-68
2022/06/21 10:39:17;;;;;;;;;16.75;16.25;;;;;;;;4890174;29;45492;-69
2022/06/21 10:44:41;;;;;;;;;18.80;16.20;;;;;;;;4900262;29;45255;-69
2022/06/21 10:47:12;;;;;;;;;14.80;13.40;;;;;;;;4882950;29;45515;-69
2022/06/21 10:49:40;;;;;;;;;14.40;13.60;;;;;;;;4883590;29;45610;-69
2022/06/21 10:52:14;;;;;;;;;14.80;14.80;;;;;;;;4878806;29;45364;-69
2022/06/21 10:54:48;;;;;;;;;14.20;13.20;;;;;;;;4883475;29;45466;-69
2022/06/21 10:57:32;;;;;;;;;11.60;11.60;;;;;;;;4876083;29;45525;-69
2022/06/21 11:02:47;;;;;;;;;14.00;14.00;;;;;;;;4895036;29;45396;-70
2022/06/21 11:05:31;;;;;;;;;11.20;11.20;;;;;;;;4896420;29;46311;-70
2022/06/21 11:07:59;;;;;;;;;13.00;13.00;;;;;;;;4883680;29;45398;-69
2022/06/21 11:10:28;;;;;;;;;12.00;12.00;;;;;;;;4881605;29;45582;-70
2022/06/21 11:13:04;;;;;;;;;12.00;10.40;;;;;;;;4880700;29;46407;-69
2022/06/21 11:15:37;;;;;;;;;11.80;11.80;;;;;;;;4887419;29;45371;-71
2022/06/21 11:18:08;;;;;;;;;13.60;12.60;;;;;;;;4878760;29;45624;-70
2022/06/21 11:20:47;;;;;;;;;12.20;11.40;;;;;;;;4880640;29;45178;-70
2022/06/21 11:23:26;;;;;;;;;16.60;13.80;;;;;;;;4879862;29;45536;-69
2022/06/21 11:25:54;;;;;;;;;12.40;11.00;;;;;;;;4883100;29;45329;-69
2022/06/21 11:28:20;;;;;;;;;13.80;11.80;;;;;;;;4891143;29;45871;-70
2022/06/21 11:31:02;;;;;;;;;10.75;10.75;;;;;;;;4885385;29;45213;-69
2022/06/21 11:33:36;;;;;;;;;10.60;10.60;;;;;;;;4875616;29;45465;-69
2022/06/21 11:36:15;;;;;;;;;12.40;12.00;;;;;;;;4880533;29;45402;-69
2022/06/21 11:38:46;;;;;;;;;10.80;9.60;;;;;;;;4877648;29;45237;-69
2022/06/21 11:44:19;;;;;;;;;13.20;12.40;;;;;;;;4886030;29;45387;-70
2022/06/21 11:46:46;;;;;;;;;11.40;10.40;;;;;;;;4883672;29;45600;-69
2022/06/21 11:49:38;;;;;;;;;13.80;12.80;;;;;;;;4885926;29;45428;-70
2022/06/21 11:52:06;;;;;;;;;13.20;12.60;;;;;;;;4875365;29;45515;-69
2022/06/21 11:54:40;;;;;;;;;16.60;13.00;;;;;;;;4884744;29;46260;-70
2022/06/21 11:57:25;;;;;;;;;15.20;13.80;;;;;;;;4882360;29;45425;-69
2022/06/21 12:00:00;;;;;;;;;13.20;13.00;;;;;;;;4901764;29;45173;-69
2022/06/21 12:02:32;;;;;;;;;11.20;10.40;;;;;;;;4897526;29;45288;-69
2022/06/21 12:05:20;;;;;;;;;13.60;12.80;;;;;;;;4899949;29;45406;-69
2022/06/21 12:08:03;;;;;;;;;12.40;10.40;;;;;;;;4895988;29;45722;-69
2022/06/21 12:47:12;;;;;;;;;10.00;10.00;;;;;;;;4891937;29;75024;-70
2022/06/21 12:49:56;;;;;;;;;11.40;11.00;;;;;;;;4884831;29;45366;-69
2022/06/21 12:52:25;;;;;;;;;12.00;11.60;;;;;;;;4889869;29;45260;-69
2022/06/21 12:54:57;;;;;;;;;1.20;0.00;;;;;;;;4886075;29;45227;-69
2022/06/21 12:57:25;;;;;;;;;12.20;12.20;;;;;;;;4885105;29;45929;-69
2022/06/21 12:59:56;;;;;;;;;11.80;10.80;;;;;;;;4883949;29;45690;-69
2022/06/21 13:02:45;;;;;;;;;11.60;11.60;;;;;;;;4884227;29;45289;-69
2022/06/21 13:05:25;;;;;;;;;14.00;12.60;;;;;;;;4890526;29;46769;-68
2022/06/21 13:08:09;;;;;;;;;11.00;11.00;;;;;;;;4884948;29;45658;-69
2022/06/21 13:10:34;;;;;;;;;9.80;9.60;;;;;;;;4883725;29;45304;-69
2022/06/21 13:13:08;;;;;;;;;9.25;9.25;;;;;;;;4885087;29;45346;-68
2022/06/21 13:15:54;;;;;;;;;8.60;7.20;;;;;;;;4883835;29;45633;-70
2022/06/21 13:18:25;;;;;;;;;9.00;9.00;;;;;;;;4891235;29;45571;-70
2022/06/21 13:20:50;;;;;;;;;12.20;11.20;;;;;;;;4892445;29;45298;-70
2022/06/21 13:23:21;;;;;;;;;10.00;9.00;;;;;;;;4890771;29;45281;-70
2022/06/21 13:26:10;;;;;;;;;12.60;10.60;;;;;;;;4890799;28;45945;-71
2022/06/21 13:28:36;;;;;;;;;11.80;10.00;;;;;;;;4882514;29;45615;-71
2022/06/21 13:31:06;;;;;;;;;10.00;10.00;;;;;;;;4879526;29;45293;-71
2022/06/21 13:33:34;;;;;;;;;10.80;9.80;;;;;;;;4884427;29;45300;-71
2022/06/21 13:36:02;;;;;;;;;9.60;9.60;;;;;;;;4884352;29;45165;-70
2022/06/21 13:38:33;;;;;;;;;10.00;10.00;;;;;;;;4886569;29;45190;-71
2022/06/21 13:41:04;;;;;;;;;10.60;10.60;;;;;;;;4888729;29;45263;-70
2022/06/21 13:43:34;;;;;;;;;9.00;8.80;;;;;;;;4892103;29;45383;-70
2022/06/21 13:46:10;;;;;;;;;9.00;9.00;;;;;;;;4877501;29;45413;-70
2022/06/21 13:48:41;;;;;;;;;7.80;7.60;;;;;;;;4873782;29;46472;-70
2022/06/21 13:51:12;;;;;;;;;8.00;8.00;;;;;;;;4870436;29;45316;-71
2022/06/21 13:53:38;;;;;;;;;11.00;9.00;;;;;;;;4891471;29;45257;-68
2022/06/21 13:56:07;;;;;;;;;7.25;6.00;;;;;;;;4891459;29;45574;-70
2022/06/21 13:58:44;;;;;;;;;11.60;10.00;;;;;;;;4883747;29;46357;-70
2022/06/21 14:01:30;;;;;;;;;8.80;8.80;;;;;;;;4884218;29;45241;-70
2022/06/21 14:04:05;;;;;;;;;6.40;6.40;;;;;;;;4884350;29;45396;-70
2022/06/21 14:06:49;;;;;;;;;6.20;6.20;;;;;;;;4883901;29;45251;-70
2022/06/21 14:09:20;;;;;;;;;7.80;7.80;;;;;;;;4884040;29;45717;-72
2022/06/21 14:11:46;;;;;;;;;9.00;9.00;;;;;;;;4883739;29;45248;-72
2022/06/21 14:14:17;;;;;;;;;8.50;8.50;;;;;;;;4884254;29;45303;-72
2022/06/21 14:16:49;;;;;;;;;11.20;11.20;;;;;;;;4882401;29;46125;-71
2022/06/21 14:19:26;;;;;;;;;9.80;9.80;;;;;;;;4883765;29;46674;-72
2022/06/21 14:22:01;;;;;;;;;9.20;9.20;;;;;;;;4886029;29;45242;-71
2022/06/21 14:24:27;;;;;;;;;9.40;9.00;;;;;;;;4885898;29;45386;-72
2022/06/21 14:26:57;;;;;;;;;9.50;9.50;;;;;;;;4864957;29;45379;-71
2022/06/21 14:29:22;;;;;;;;;9.60;9.20;;;;;;;;4868382;29;45292;-71
2022/06/21 14:31:56;;;;;;;;;11.50;9.50;;;;;;;;4883593;29;45366;-71
2022/06/21 14:34:24;;;;;;;;;10.00;9.00;;;;;;;;4883935;29;45332;-71
2022/06/21 14:37:16;;;;;;;;;8.60;8.60;;;;;;;;4882690;29;45962;-71
2022/06/21 14:39:43;;;;;;;;;9.20;9.20;;;;;;;;4881951;29;47193;-71
2022/06/21 14:42:09;;;;;;;;;9.00;9.00;;;;;;;;4882131;29;45508;-71
2022/06/21 14:44:41;;;;;;;;;9.00;9.00;;;;;;;;4884022;29;45442;-71
2022/06/21 14:47:25;;;;;;;;;7.80;7.80;;;;;;;;4881971;29;46528;-72
2022/06/21 14:50:01;;;;;;;;;9.60;9.60;;;;;;;;4883278;29;45504;-71
2022/06/21 14:52:37;;;;;;;;;9.60;9.60;;;;;;;;4882462;29;45320;-72
2022/06/21 14:55:12;;;;;;;;;8.00;8.00;;;;;;;;4886695;29;45508;-72
2022/06/21 14:57:43;;;;;;;;;9.20;9.20;;;;;;;;4883334;29;45572;-71
2022/06/21 15:00:11;;;;;;;;;10.80;10.00;;;;;;;;4882157;29;48309;-71
2022/06/21 15:02:47;;;;;;;;;9.20;9.20;;;;;;;;4883471;29;45291;-71
2022/06/21 15:05:30;;;;;;;;;8.80;8.80;;;;;;;;4883466;29;45527;-71
2022/06/21 15:08:22;;;;;;;;;8.60;8.00;;;;;;;;4883154;29;45435;-71
2022/06/21 15:10:57;;;;;;;;;9.40;7.80;;;;;;;;4874227;29;46716;-71
2022/06/21 15:13:29;;;;;;;;;7.80;7.80;;;;;;;;4886427;29;45301;-71
2022/06/21 15:15:55;;;;;;;;;11.80;11.80;;;;;;;;4905624;29;45336;-71
2022/06/21 15:18:26;;;;;;;;;9.00;9.00;;;;;;;;4905544;28;45568;-71
2022/06/21 15:21:09;;;;;;;;;12.60;11.60;;;;;;;;4903776;29;45367;-71
2022/06/21 15:23:57;;;;;;;;;6.80;6.80;;;;;;;;4905431;28;45354;-71
2022/06/21 15:26:30;;;;;;;;;11.20;11.20;;;;;;;;4905029;29;45301;-72
2022/06/21 15:29:16;;;;;;;;;8.40;8.40;;;;;;;;4896797;28;45454;-71
2022/06/21 15:32:01;;;;;;;;;11.80;9.20;;;;;;;;4894912;29;45532;-71
2022/06/21 15:34:33;;;;;;;;;10.60;10.60;;;;;;;;4905117;28;45337;-75
2022/06/21 15:37:05;;;;;;;;;10.00;10.00;;;;;;;;4905454;28;45394;-72
2022/06/21 15:39:33;;;;;;;;;8.20;8.20;;;;;;;;4904237;29;45512;-73
2022/06/21 15:42:05;;;;;;;;;10.00;10.00;;;;;;;;4903121;28;45713;-72
2022/06/21 15:44:39;;;;;;;;;8.60;8.60;;;;;;;;4900733;28;45392;-72